createdAt,value
2018-09-28T00:00:21.085Z,1014.65
2018-09-28T00:01:21.078Z,1014.65
2018-09-28T00:02:21.074Z,1014.62
2018-09-28T00:03:21.065Z,1014.58
2018-09-28T00:04:21.072Z,1014.58
2018-09-28T00:05:21.057Z,1014.55
2018-09-28T00:06:21.048Z,1014.54
2018-09-28T00:07:21.042Z,1014.55
2018-09-28T00:08:21.040Z,1014.53
2018-09-28T00:09:21.030Z,1014.54
2018-09-28T00:10:21.024Z,1014.54
2018-09-28T00:11:21.017Z,1014.54
2018-09-28T00:12:21.014Z,1014.55
2018-09-28T00:13:21.007Z,1014.57
2018-09-28T00:14:20.996Z,1014.61
2018-09-28T00:15:20.992Z,1014.60
2018-09-28T00:16:20.985Z,1014.63
2018-09-28T00:17:20.978Z,1014.65
2018-09-28T00:18:20.971Z,1014.63
2018-09-28T00:19:20.966Z,1014.66
2018-09-28T00:20:20.960Z,1014.66
2018-09-28T00:21:20.957Z,1014.63
2018-09-28T00:22:20.949Z,1014.64
2018-09-28T00:23:20.940Z,1014.58
2018-09-28T00:24:20.932Z,1014.57
2018-09-28T00:25:20.924Z,1014.57
2018-09-28T00:26:20.917Z,1014.56
2018-09-28T00:27:20.920Z,1014.53
2018-09-28T00:28:20.912Z,1014.47
2018-09-28T00:29:20.906Z,1014.45
2018-09-28T00:30:20.895Z,1014.46
2018-09-28T00:31:20.892Z,1014.52
2018-09-28T00:32:20.882Z,1014.50
2018-09-28T00:33:20.872Z,1014.56
2018-09-28T00:34:20.870Z,1014.61
2018-09-28T00:35:20.868Z,1014.65
2018-09-28T00:36:20.858Z,1014.70
2018-09-28T00:37:20.849Z,1014.73
2018-09-28T00:38:20.846Z,1014.75
2018-09-28T00:39:20.837Z,1014.68
2018-09-28T00:40:20.829Z,1014.59
2018-09-28T00:41:20.826Z,1014.66
2018-09-28T00:42:20.820Z,1014.77
2018-09-28T00:43:20.811Z,1014.82
2018-09-28T00:44:20.804Z,1014.73
2018-09-28T00:45:20.804Z,1014.64
2018-09-28T00:46:20.797Z,1014.60
2018-09-28T00:47:20.784Z,1014.68
2018-09-28T00:48:20.775Z,1014.75
2018-09-28T00:49:20.773Z,1014.79
2018-09-28T00:50:20.769Z,1014.69
2018-09-28T00:51:20.758Z,1014.66
2018-09-28T00:52:20.751Z,1014.62
2018-09-28T00:53:20.743Z,1014.59
2018-09-28T00:54:20.737Z,1014.65
2018-09-28T00:55:20.734Z,1014.64
2018-09-28T00:56:20.724Z,1014.65
2018-09-28T00:57:20.718Z,1014.59
2018-09-28T00:58:20.714Z,1014.61
2018-09-28T00:59:20.706Z,1014.54
2018-09-28T01:00:20.696Z,1014.57
2018-09-28T01:01:20.693Z,1014.56
2018-09-28T01:02:20.743Z,1014.59
2018-09-28T01:03:20.679Z,1014.55
2018-09-28T01:04:20.671Z,1014.51
2018-09-28T01:05:20.669Z,1014.50
2018-09-28T01:06:20.656Z,1014.47
2018-09-28T01:07:20.652Z,1014.45
2018-09-28T01:08:20.651Z,1014.45
2018-09-28T01:09:20.640Z,1014.41
2018-09-28T01:10:20.638Z,1014.42
2018-09-28T01:11:20.625Z,1014.38
2018-09-28T01:12:20.619Z,1014.38
2018-09-28T01:13:20.614Z,1014.38
2018-09-28T01:14:20.605Z,1014.36
2018-09-28T01:15:20.604Z,1014.33
2018-09-28T01:16:20.593Z,1014.39
2018-09-28T01:17:20.584Z,1014.41
2018-09-28T01:18:20.585Z,1014.43
2018-09-28T01:19:20.569Z,1014.43
2018-09-28T01:20:20.562Z,1014.40
2018-09-28T01:21:20.560Z,1014.40
2018-09-28T01:22:20.555Z,1014.40
2018-09-28T01:23:20.544Z,1014.38
2018-09-28T01:24:20.539Z,1014.38
2018-09-28T01:25:20.532Z,1014.39
2018-09-28T01:26:20.521Z,1014.41
2018-09-28T01:27:20.520Z,1014.47
2018-09-28T01:28:20.510Z,1014.45
2018-09-28T01:29:20.505Z,1014.45
2018-09-28T01:30:20.497Z,1014.45
2018-09-28T01:31:20.489Z,1014.44
2018-09-28T01:32:20.491Z,1014.46
2018-09-28T01:33:20.476Z,1014.46
2018-09-28T01:34:20.471Z,1014.48
2018-09-28T01:35:20.460Z,1014.46
2018-09-28T01:36:20.457Z,1014.46
2018-09-28T01:38:42.055Z,1014.43
2018-09-28T01:39:42.016Z,1014.50
2018-09-28T01:40:42.009Z,1014.45
2018-09-28T01:41:42.005Z,1014.51
2018-09-28T01:42:42.000Z,1014.53
2018-09-28T01:43:41.988Z,1014.49
2018-09-28T01:44:41.995Z,1014.47
2018-09-28T01:45:41.977Z,1014.39
2018-09-28T01:46:41.967Z,1014.42
2018-09-28T01:47:41.969Z,1014.48
2018-09-28T01:48:41.954Z,1014.42
2018-09-28T01:49:41.945Z,1014.41
2018-09-28T01:50:41.944Z,1014.46
2018-09-28T01:51:41.942Z,1014.45
2018-09-28T01:52:41.930Z,1014.46
2018-09-28T01:53:41.927Z,1014.47
2018-09-28T01:54:41.916Z,1014.50
2018-09-28T01:55:41.909Z,1014.51
2018-09-28T01:56:41.900Z,1014.53
2018-09-28T01:57:41.895Z,1014.51
2018-09-28T01:58:41.886Z,1014.47
2018-09-28T01:59:41.883Z,1014.46
2018-09-28T02:00:41.875Z,1014.51
2018-09-28T02:01:41.867Z,1014.52
2018-09-28T02:02:41.857Z,1014.53
2018-09-28T02:03:41.851Z,1014.49
2018-09-28T02:04:41.846Z,1014.43
2018-09-28T02:05:41.837Z,1014.48
2018-09-28T02:06:41.834Z,1014.49
2018-09-28T02:07:41.831Z,1014.50
2018-09-28T02:08:41.824Z,1014.50
2018-09-28T02:09:41.811Z,1014.46
2018-09-28T02:10:41.804Z,1014.45
2018-09-28T02:11:41.800Z,1014.45
2018-09-28T02:12:41.801Z,1014.47
2018-09-28T02:13:41.781Z,1014.48
2018-09-28T02:14:41.779Z,1014.51
2018-09-28T02:15:41.776Z,1014.52
2018-09-28T02:16:41.764Z,1014.52
2018-09-28T02:17:41.750Z,1014.53
2018-09-28T02:18:41.754Z,1014.52
2018-09-28T02:19:41.743Z,1014.54
2018-09-28T02:20:41.739Z,1014.55
2018-09-28T02:21:41.732Z,1014.62
2018-09-28T02:22:41.721Z,1014.56
2018-09-28T02:23:41.721Z,1014.56
2018-09-28T02:24:41.710Z,1014.59
2018-09-28T02:25:41.700Z,1014.55
2018-09-28T02:26:41.722Z,1014.55
2018-09-28T02:27:41.692Z,1014.58
2018-09-28T02:28:41.690Z,1014.53
2018-09-28T02:29:41.685Z,1014.55
2018-09-28T02:30:41.672Z,1014.54
2018-09-28T02:31:41.660Z,1014.56
2018-09-28T02:32:41.654Z,1014.53
2018-09-28T02:33:41.649Z,1014.54
2018-09-28T02:34:41.671Z,1014.56
2018-09-28T02:35:41.643Z,1014.57
2018-09-28T02:36:41.634Z,1014.59
2018-09-28T02:37:41.621Z,1014.61
2018-09-28T02:38:41.623Z,1014.64
2018-09-28T02:39:41.607Z,1014.63
2018-09-28T02:40:41.601Z,1014.59
2018-09-28T02:41:41.596Z,1014.64
2018-09-28T02:42:41.592Z,1014.59
2018-09-28T02:43:41.585Z,1014.56
2018-09-28T02:44:41.589Z,1014.54
2018-09-28T02:45:41.571Z,1014.53
2018-09-28T02:46:41.564Z,1014.49
2018-09-28T02:47:41.562Z,1014.54
2018-09-28T02:48:41.550Z,1014.53
2018-09-28T02:49:41.546Z,1014.53
2018-09-28T02:50:41.545Z,1014.57
2018-09-28T02:51:41.541Z,1014.55
2018-09-28T02:52:41.528Z,1014.61
2018-09-28T02:53:41.519Z,1014.60
2018-09-28T02:54:41.510Z,1014.60
2018-09-28T02:55:41.505Z,1014.60
2018-09-28T02:56:41.505Z,1014.59
2018-09-28T02:57:41.495Z,1014.58
2018-09-28T02:58:41.489Z,1014.62
2018-09-28T02:59:41.483Z,1014.62
2018-09-28T03:00:41.474Z,1014.63
2018-09-28T03:01:42.401Z,1014.68
2018-09-28T03:02:41.463Z,1014.64
2018-09-28T03:03:41.456Z,1014.61
2018-09-28T03:04:41.449Z,1014.61
2018-09-28T03:05:41.464Z,1014.65
2018-09-28T03:06:41.437Z,1014.64
2018-09-28T03:07:41.426Z,1014.62
2018-09-28T03:08:41.420Z,1014.63
2018-09-28T03:09:41.418Z,1014.64
2018-09-28T03:10:41.408Z,1014.66
2018-09-28T03:11:41.404Z,1014.64
2018-09-28T03:12:41.402Z,1014.65
2018-09-28T03:13:41.386Z,1014.62
2018-09-28T03:14:41.386Z,1014.68
2018-09-28T03:15:41.377Z,1014.72
2018-09-28T03:16:41.384Z,1014.71
2018-09-28T03:17:41.363Z,1014.70
2018-09-28T03:18:41.358Z,1014.68
2018-09-28T03:19:41.352Z,1014.71
2018-09-28T03:20:41.346Z,1014.71
2018-09-28T03:21:41.340Z,1014.71
2018-09-28T03:22:41.338Z,1014.79
2018-09-28T03:23:41.335Z,1014.70
2018-09-28T03:24:41.321Z,1014.74
2018-09-28T03:25:41.359Z,1014.73
2018-09-28T03:26:41.312Z,1014.72
2018-09-28T03:27:41.307Z,1014.70
2018-09-28T03:28:41.299Z,1014.68
2018-09-28T03:29:41.294Z,1014.66
2018-09-28T03:30:41.286Z,1014.70
2018-09-28T03:31:41.277Z,1014.67
2018-09-28T03:32:41.272Z,1014.66
2018-09-28T03:33:41.275Z,1014.65
2018-09-28T03:34:41.266Z,1014.62
2018-09-28T03:35:41.261Z,1014.65
2018-09-28T03:36:41.249Z,1014.64
2018-09-28T03:37:41.246Z,1014.65
2018-09-28T03:38:41.238Z,1014.66
2018-09-28T03:39:41.236Z,1014.66
2018-09-28T03:40:41.301Z,1014.63
2018-09-28T03:41:41.216Z,1014.62
2018-09-28T03:42:41.216Z,1014.65
2018-09-28T03:43:41.210Z,1014.65
2018-09-28T03:44:55.926Z,1014.65
2018-09-28T03:45:41.195Z,1014.69
2018-09-28T03:46:41.193Z,1014.68
2018-09-28T03:47:41.191Z,1014.75
2018-09-28T03:48:41.178Z,1014.76
2018-09-28T03:49:41.177Z,1014.78
2018-09-28T03:50:41.163Z,1014.78
2018-09-28T03:51:41.157Z,1014.81
2018-09-28T03:52:41.150Z,1014.78
2018-09-28T03:53:41.148Z,1014.84
2018-09-28T03:54:41.142Z,1014.88
2018-09-28T03:55:41.136Z,1014.84
2018-09-28T03:56:41.131Z,1014.88
2018-09-28T03:57:41.120Z,1014.88
2018-09-28T03:58:41.118Z,1014.90
2018-09-28T03:59:41.110Z,1014.91
2018-09-28T04:00:41.116Z,1014.91
2018-09-28T04:01:41.098Z,1014.93
2018-09-28T04:02:41.094Z,1014.89
2018-09-28T04:03:41.084Z,1014.91
2018-09-28T04:04:41.080Z,1014.92
2018-09-28T04:05:41.079Z,1014.94
2018-09-28T04:06:41.066Z,1014.97
2018-09-28T04:07:41.062Z,1014.94
2018-09-28T04:08:41.069Z,1014.96
2018-09-28T04:09:41.052Z,1014.91
2018-09-28T04:10:41.043Z,1014.85
2018-09-28T04:11:41.034Z,1014.86
2018-09-28T04:12:41.030Z,1014.81
2018-09-28T04:13:41.027Z,1014.83
2018-09-28T04:14:41.020Z,1014.82
2018-09-28T04:15:41.020Z,1014.78
2018-09-28T04:16:41.009Z,1014.85
2018-09-28T04:17:41.000Z,1014.88
2018-09-28T04:18:40.993Z,1014.88
2018-09-28T04:19:40.987Z,1014.90
2018-09-28T04:20:40.981Z,1014.91
2018-09-28T04:21:41.006Z,1014.91
2018-09-28T04:22:40.973Z,1014.89
2018-09-28T04:23:40.969Z,1014.91
2018-09-28T04:24:40.958Z,1014.92
2018-09-28T04:25:40.952Z,1014.90
2018-09-28T04:26:40.949Z,1014.89
2018-09-28T04:27:40.942Z,1014.95
2018-09-28T04:28:40.938Z,1014.93
2018-09-28T04:29:40.935Z,1014.98
2018-09-28T04:30:40.932Z,1014.98
2018-09-28T04:31:40.929Z,1015.01
2018-09-28T04:32:40.912Z,1015.04
2018-09-28T04:33:40.905Z,1015.08
2018-09-28T04:34:40.903Z,1015.09
2018-09-28T04:35:40.902Z,1015.09
2018-09-28T04:36:40.890Z,1015.11
2018-09-28T04:37:40.884Z,1015.16
2018-09-28T04:38:40.877Z,1015.17
2018-09-28T04:39:40.880Z,1015.19
2018-09-28T04:40:40.865Z,1015.19
2018-09-28T04:41:40.858Z,1015.20
2018-09-28T04:42:40.853Z,1015.19
2018-09-28T04:43:40.850Z,1015.19
2018-09-28T04:44:40.850Z,1015.19
2018-09-28T04:45:40.913Z,1015.21
2018-09-28T04:46:40.828Z,1015.25
2018-09-28T04:47:40.829Z,1015.27
2018-09-28T04:48:40.819Z,1015.29
2018-09-28T04:49:40.821Z,1015.30
2018-09-28T04:50:40.806Z,1015.32
2018-09-28T04:51:40.803Z,1015.29
2018-09-28T04:52:40.800Z,1015.27
2018-09-28T04:53:40.791Z,1015.31
2018-09-28T04:54:40.794Z,1015.34
2018-09-28T04:55:40.779Z,1015.35
2018-09-28T04:56:40.773Z,1015.34
2018-09-28T04:57:40.767Z,1015.32
2018-09-28T04:58:40.766Z,1015.30
2018-09-28T04:59:40.760Z,1015.32
2018-09-28T05:00:40.747Z,1015.37
2018-09-28T05:01:40.743Z,1015.39
2018-09-28T05:02:40.742Z,1015.42
2018-09-28T05:03:40.732Z,1015.43
2018-09-28T05:04:40.730Z,1015.43
2018-09-28T05:05:40.726Z,1015.43
2018-09-28T05:06:40.721Z,1015.47
2018-09-28T05:07:40.712Z,1015.49
2018-09-28T05:08:40.711Z,1015.57
2018-09-28T05:09:40.700Z,1015.59
2018-09-28T05:10:40.696Z,1015.63
2018-09-28T05:11:40.706Z,1015.62
2018-09-28T05:12:40.854Z,1015.59
2018-09-28T05:13:40.678Z,1015.64
2018-09-28T05:14:40.696Z,1015.60
2018-09-28T05:15:40.670Z,1015.64
2018-09-28T05:16:40.658Z,1015.67
2018-09-28T05:17:40.655Z,1015.65
2018-09-28T05:18:40.652Z,1015.70
2018-09-28T05:19:40.646Z,1015.72
2018-09-28T05:20:40.647Z,1015.74
2018-09-28T05:21:40.632Z,1015.68
2018-09-28T05:22:40.651Z,1015.69
2018-09-28T05:23:40.623Z,1015.74
2018-09-28T05:24:40.619Z,1015.70
2018-09-28T05:25:40.612Z,1015.68
2018-09-28T05:26:40.602Z,1015.67
2018-09-28T05:27:40.602Z,1015.65
2018-09-28T05:28:40.593Z,1015.66
2018-09-28T05:29:41.473Z,1015.68
2018-09-28T05:30:44.966Z,1015.71
2018-09-28T05:31:40.702Z,1015.72
2018-09-28T05:32:40.787Z,1015.73
2018-09-28T05:33:40.562Z,1015.79
2018-09-28T05:34:40.560Z,1015.78
2018-09-28T05:35:40.559Z,1015.85
2018-09-28T05:36:40.548Z,1015.84
2018-09-28T05:37:40.540Z,1015.85
2018-09-28T05:38:40.535Z,1015.88
2018-09-28T05:39:40.532Z,1015.92
2018-09-28T05:40:40.523Z,1015.93
2018-09-28T05:41:40.522Z,1015.94
2018-09-28T05:42:40.515Z,1016.00
2018-09-28T05:43:40.549Z,1016.03
2018-09-28T05:44:40.503Z,1016.04
2018-09-28T05:45:40.512Z,1016.06
2018-09-28T05:46:40.497Z,1016.08
2018-09-28T05:47:40.486Z,1016.10
2018-09-28T05:48:40.483Z,1016.18
2018-09-28T05:49:40.475Z,1016.23
2018-09-28T05:50:40.466Z,1016.25
2018-09-28T05:51:40.466Z,1016.24
2018-09-28T05:52:40.476Z,1016.29
2018-09-28T05:53:40.452Z,1016.29
2018-09-28T05:54:40.458Z,1016.28
2018-09-28T05:55:40.456Z,1016.33
2018-09-28T05:56:40.437Z,1016.35
2018-09-28T05:57:40.429Z,1016.29
2018-09-28T05:58:40.508Z,1016.33
2018-09-28T05:59:40.419Z,1016.34
2018-09-28T06:00:40.412Z,1016.35
2018-09-28T06:01:40.409Z,1016.37
2018-09-28T06:02:40.400Z,1016.41
2018-09-28T06:03:40.403Z,1016.44
2018-09-28T06:04:40.391Z,1016.49
2018-09-28T06:05:40.516Z,1016.53
2018-09-28T06:06:40.377Z,1016.54
2018-09-28T06:07:40.376Z,1016.56
2018-09-28T06:08:40.369Z,1016.53
2018-09-28T06:09:40.360Z,1016.56
2018-09-28T06:10:40.355Z,1016.61
2018-09-28T06:11:40.350Z,1016.59
2018-09-28T06:12:40.345Z,1016.65
2018-09-28T06:13:40.335Z,1016.64
2018-09-28T06:14:40.332Z,1016.65
2018-09-28T06:15:40.333Z,1016.60
2018-09-28T06:16:40.326Z,1016.66
2018-09-28T06:17:40.315Z,1016.72
2018-09-28T06:18:40.405Z,1016.71
2018-09-28T06:19:40.311Z,1016.74
2018-09-28T06:20:40.298Z,1016.75
2018-09-28T06:21:40.294Z,1016.79
2018-09-28T06:22:40.287Z,1016.80
2018-09-28T06:23:40.281Z,1016.84
2018-09-28T06:24:40.280Z,1016.78
2018-09-28T06:25:40.266Z,1016.87
2018-09-28T06:26:40.262Z,1016.81
2018-09-28T06:27:40.262Z,1016.89
2018-09-28T06:28:40.256Z,1016.92
2018-09-28T06:29:40.287Z,1016.91
2018-09-28T06:30:40.254Z,1016.94
2018-09-28T06:31:40.235Z,1017.01
2018-09-28T06:32:40.229Z,1017.00
2018-09-28T06:33:40.222Z,1016.99
2018-09-28T06:34:40.215Z,1017.01
2018-09-28T06:35:40.233Z,1017.00
2018-09-28T06:36:40.208Z,1017.05
2018-09-28T06:37:40.199Z,1017.08
2018-09-28T06:38:40.193Z,1017.03
2018-09-28T06:39:40.187Z,1017.07
2018-09-28T06:40:40.185Z,1017.11
2018-09-28T06:41:40.227Z,1017.14
2018-09-28T06:42:40.167Z,1017.13
2018-09-28T06:43:40.168Z,1017.18
2018-09-28T06:44:40.207Z,1017.16
2018-09-28T06:45:40.152Z,1017.20
2018-09-28T06:46:40.144Z,1017.22
2018-09-28T06:47:40.147Z,1017.22
2018-09-28T06:48:40.146Z,1017.21
2018-09-28T06:49:40.131Z,1017.17
2018-09-28T06:50:40.124Z,1017.24
2018-09-28T06:51:40.116Z,1017.26
2018-09-28T06:52:40.116Z,1017.29
2018-09-28T06:53:40.115Z,1017.24
2018-09-28T06:54:40.097Z,1017.29
2018-09-28T06:55:40.091Z,1017.27
2018-09-28T06:56:40.090Z,1017.30
2018-09-28T06:57:40.080Z,1017.35
2018-09-28T06:58:40.077Z,1017.32
2018-09-28T06:59:40.118Z,1017.37
2018-09-28T07:00:40.070Z,1017.40
2018-09-28T07:01:40.059Z,1017.45
2018-09-28T07:02:40.050Z,1017.45
2018-09-28T07:03:40.046Z,1017.47
2018-09-28T07:04:40.045Z,1017.51
2018-09-28T07:05:40.037Z,1017.51
2018-09-28T07:06:40.026Z,1017.51
2018-09-28T07:07:40.018Z,1017.56
2018-09-28T07:08:40.022Z,1017.51
2018-09-28T07:09:40.007Z,1017.53
2018-09-28T07:10:40.005Z,1017.51
2018-09-28T07:11:40.051Z,1017.52
2018-09-28T07:12:39.998Z,1017.55
2018-09-28T07:13:39.985Z,1017.55
2018-09-28T07:14:39.977Z,1017.59
2018-09-28T07:15:39.974Z,1017.61
2018-09-28T07:16:40.028Z,1017.65
2018-09-28T07:17:40.003Z,1017.69
2018-09-28T07:18:39.957Z,1017.65
2018-09-28T07:19:39.952Z,1017.64
2018-09-28T07:20:39.944Z,1017.71
2018-09-28T07:21:39.935Z,1017.73
2018-09-28T07:22:39.929Z,1017.75
2018-09-28T07:23:39.926Z,1017.77
2018-09-28T07:24:39.978Z,1017.76
2018-09-28T07:25:39.962Z,1017.77
2018-09-28T07:26:39.915Z,1017.75
2018-09-28T07:27:39.904Z,1017.79
2018-09-28T07:28:39.894Z,1017.77
2018-09-28T07:29:39.893Z,1017.83
2018-09-28T07:30:39.885Z,1017.83
2018-09-28T07:31:39.881Z,1017.83
2018-09-28T07:32:39.879Z,1017.82
2018-09-28T07:33:39.868Z,1017.82
2018-09-28T07:34:39.862Z,1017.89
2018-09-28T07:35:39.883Z,1017.91
2018-09-28T07:36:39.962Z,1017.90
2018-09-28T07:37:39.849Z,1017.89
2018-09-28T07:38:39.855Z,1017.91
2018-09-28T07:39:39.832Z,1017.95
2018-09-28T07:40:39.867Z,1017.95
2018-09-28T07:41:39.868Z,1017.89
2018-09-28T07:42:39.822Z,1017.91
2018-09-28T07:43:39.809Z,1017.88
2018-09-28T07:44:39.807Z,1017.89
2018-09-28T07:45:39.804Z,1017.93
2018-09-28T07:46:39.792Z,1017.93
2018-09-28T07:47:39.827Z,1017.90
2018-09-28T07:48:39.782Z,1017.95
2018-09-28T07:49:39.774Z,1017.97
2018-09-28T07:50:39.774Z,1017.97
2018-09-28T07:51:39.766Z,1018.01
2018-09-28T07:52:39.762Z,1018.01
2018-09-28T07:53:39.765Z,1018.02
2018-09-28T07:54:39.751Z,1018.02
2018-09-28T07:55:39.754Z,1018.02
2018-09-28T07:56:39.744Z,1018.06
2018-09-28T07:57:39.739Z,1018.06
2018-09-28T07:58:39.735Z,1018.11
2018-09-28T07:59:39.724Z,1018.14
2018-09-28T08:00:39.721Z,1018.17
2018-09-28T08:01:39.714Z,1018.17
2018-09-28T08:02:39.710Z,1018.15
2018-09-28T08:03:39.703Z,1018.17
2018-09-28T08:04:39.699Z,1018.18
2018-09-28T08:05:39.691Z,1018.17
2018-09-28T08:06:39.710Z,1018.16
2018-09-28T08:07:39.686Z,1018.18
2018-09-28T08:08:39.678Z,1018.21
2018-09-28T08:09:39.675Z,1018.22
2018-09-28T08:10:39.672Z,1018.25
2018-09-28T08:11:39.660Z,1018.24
2018-09-28T08:12:39.657Z,1018.31
2018-09-28T08:13:39.649Z,1018.29
2018-09-28T08:14:39.651Z,1018.31
2018-09-28T08:15:39.644Z,1018.32
2018-09-28T08:16:39.638Z,1018.35
2018-09-28T08:17:39.634Z,1018.37
2018-09-28T08:18:39.625Z,1018.45
2018-09-28T08:19:39.647Z,1018.39
2018-09-28T08:20:39.614Z,1018.46
2018-09-28T08:21:39.618Z,1018.42
2018-09-28T08:22:39.603Z,1018.48
2018-09-28T08:23:39.601Z,1018.51
2018-09-28T08:24:39.673Z,1018.43
2018-09-28T08:25:41.556Z,1018.46
2018-09-28T08:26:39.692Z,1018.48
2018-09-28T08:27:39.658Z,1018.50
2018-09-28T08:28:39.730Z,1018.47
2018-09-28T08:29:39.572Z,1018.53
2018-09-28T08:30:39.572Z,1018.53
2018-09-28T08:31:39.559Z,1018.52
2018-09-28T08:32:40.920Z,1018.56
2018-09-28T08:33:42.009Z,1018.54
2018-09-28T08:34:40.670Z,1018.56
2018-09-28T08:35:39.539Z,1018.63
2018-09-28T08:36:39.566Z,1018.64
2018-09-28T08:37:39.529Z,1018.67
2018-09-28T08:38:39.518Z,1018.65
2018-09-28T08:39:39.515Z,1018.65
2018-09-28T08:40:39.516Z,1018.70
2018-09-28T08:41:40.109Z,1018.68
2018-09-28T08:42:39.500Z,1018.74
2018-09-28T08:43:39.559Z,1018.79
2018-09-28T08:44:39.492Z,1018.78
2018-09-28T08:45:39.479Z,1018.81
2018-09-28T08:46:39.482Z,1018.82
2018-09-28T08:47:39.472Z,1018.85
2018-09-28T08:48:39.468Z,1018.82
2018-09-28T08:49:39.462Z,1018.84
2018-09-28T08:50:39.456Z,1018.84
2018-09-28T08:51:39.449Z,1018.84
2018-09-28T08:52:39.450Z,1018.86
2018-09-28T08:53:39.459Z,1018.85
2018-09-28T08:54:39.434Z,1018.92
2018-09-28T08:55:39.429Z,1018.85
2018-09-28T08:56:39.420Z,1018.90
2018-09-28T08:57:39.427Z,1018.90
2018-09-28T08:58:39.417Z,1018.90
2018-09-28T08:59:39.409Z,1018.92
2018-09-28T09:00:39.401Z,1018.95
2018-09-28T09:01:39.395Z,1019.01
2018-09-28T09:02:39.389Z,1019.00
2018-09-28T09:03:39.385Z,1019.02
2018-09-28T09:04:39.380Z,1018.99
2018-09-28T09:05:39.378Z,1018.96
2018-09-28T09:06:39.371Z,1018.99
2018-09-28T09:07:39.370Z,1019.02
2018-09-28T09:08:39.357Z,1019.01
2018-09-28T09:09:39.353Z,1019.03
2018-09-28T09:10:39.349Z,1019.04
2018-09-28T09:11:39.346Z,1019.10
2018-09-28T09:12:39.346Z,1019.13
2018-09-28T09:13:39.341Z,1019.10
2018-09-28T09:14:39.329Z,1019.16
2018-09-28T09:15:39.328Z,1019.19
2018-09-28T09:16:39.318Z,1019.21
2018-09-28T09:17:39.316Z,1019.24
2018-09-28T09:18:39.309Z,1019.17
2018-09-28T09:19:39.306Z,1019.21
2018-09-28T09:20:39.300Z,1019.23
2018-09-28T09:21:39.296Z,1019.27
2018-09-28T09:22:39.288Z,1019.23
2018-09-28T09:23:39.287Z,1019.24
2018-09-28T09:24:39.281Z,1019.25
2018-09-28T09:25:39.275Z,1019.23
2018-09-28T09:26:39.269Z,1019.22
2018-09-28T09:27:39.270Z,1019.22
2018-09-28T09:28:39.260Z,1019.20
2018-09-28T09:29:39.256Z,1019.20
2018-09-28T09:30:39.249Z,1019.18
2018-09-28T09:31:39.248Z,1019.18
2018-09-28T09:32:39.244Z,1019.16
2018-09-28T09:33:39.233Z,1019.16
2018-09-28T09:34:39.239Z,1019.20
2018-09-28T09:35:39.230Z,1019.24
2018-09-28T09:36:39.272Z,1019.25
2018-09-28T09:37:39.217Z,1019.24
2018-09-28T09:38:39.219Z,1019.27
2018-09-28T09:39:39.208Z,1019.27
2018-09-28T09:40:39.215Z,1019.30
2018-09-28T09:41:39.200Z,1019.30
2018-09-28T09:42:39.263Z,1019.28
2018-09-28T09:43:39.189Z,1019.32
2018-09-28T09:44:39.182Z,1019.32
2018-09-28T09:45:39.183Z,1019.36
2018-09-28T09:46:39.174Z,1019.35
2018-09-28T09:47:39.176Z,1019.37
2018-09-28T09:48:39.181Z,1019.43
2018-09-28T09:49:39.166Z,1019.40
2018-09-28T09:50:39.156Z,1019.39
2018-09-28T09:51:39.151Z,1019.38
2018-09-28T09:52:39.144Z,1019.41
2018-09-28T09:53:39.140Z,1019.35
2018-09-28T09:54:39.141Z,1019.37
2018-09-28T09:55:39.134Z,1019.38
2018-09-28T09:56:39.129Z,1019.42
2018-09-28T09:57:39.134Z,1019.39
2018-09-28T09:58:39.123Z,1019.44
2018-09-28T09:59:39.113Z,1019.42
2018-09-28T10:00:39.110Z,1019.43
2018-09-28T10:01:39.101Z,1019.46
2018-09-28T10:02:39.100Z,1019.49
2018-09-28T10:03:39.100Z,1019.52
2018-09-28T10:04:39.088Z,1019.45
2018-09-28T10:05:39.083Z,1019.47
2018-09-28T10:06:39.076Z,1019.49
2018-09-28T10:07:39.076Z,1019.52
2018-09-28T10:08:39.078Z,1019.52
2018-09-28T10:09:39.083Z,1019.49
2018-09-28T10:10:39.065Z,1019.51
2018-09-28T10:11:39.059Z,1019.50
2018-09-28T10:12:39.092Z,1019.46
2018-09-28T10:13:39.049Z,1019.47
2018-09-28T10:14:39.039Z,1019.48
2018-09-28T10:15:39.036Z,1019.47
2018-09-28T10:16:39.034Z,1019.48
2018-09-28T10:17:39.033Z,1019.46
2018-09-28T10:18:39.029Z,1019.44
2018-09-28T10:19:39.027Z,1019.41
2018-09-28T10:20:39.015Z,1019.48
2018-09-28T10:21:39.010Z,1019.45
2018-09-28T10:22:39.004Z,1019.45
2018-09-28T10:23:39.002Z,1019.45
2018-09-28T10:24:39.006Z,1019.45
2018-09-28T10:25:38.998Z,1019.45
2018-09-28T10:26:38.989Z,1019.43
2018-09-28T10:27:39.639Z,1019.44
2018-09-28T10:28:39.045Z,1019.44
2018-09-28T10:29:38.973Z,1019.48
2018-09-28T10:30:38.971Z,1019.53
2018-09-28T10:31:38.963Z,1019.54
2018-09-28T10:32:38.964Z,1019.55
2018-09-28T10:33:39.008Z,1019.56
2018-09-28T10:34:38.994Z,1019.58
2018-09-28T10:35:38.952Z,1019.58
2018-09-28T10:36:38.944Z,1019.57
2018-09-28T10:37:38.943Z,1019.55
2018-09-28T10:38:38.939Z,1019.60
2018-09-28T10:39:38.945Z,1019.66
2018-09-28T10:40:39.070Z,1019.67
2018-09-28T10:41:38.932Z,1019.61
2018-09-28T10:42:38.943Z,1019.57
2018-09-28T10:43:38.925Z,1019.58
2018-09-28T10:44:38.920Z,1019.62
2018-09-28T10:45:38.922Z,1019.59
2018-09-28T10:46:38.967Z,1019.65
2018-09-28T10:47:38.905Z,1019.67
2018-09-28T10:48:38.897Z,1019.69
2018-09-28T10:49:38.892Z,1019.63
2018-09-28T10:50:38.888Z,1019.69
2018-09-28T10:51:38.897Z,1019.68
2018-09-28T10:52:38.979Z,1019.63
2018-09-28T10:53:38.884Z,1019.65
2018-09-28T10:54:38.875Z,1019.61
2018-09-28T10:55:38.875Z,1019.64
2018-09-28T10:56:38.870Z,1019.65
2018-09-28T10:57:38.864Z,1019.65
2018-09-28T10:58:38.874Z,1019.64
2018-09-28T10:59:38.870Z,1019.59
2018-09-28T11:00:38.863Z,1019.68
2018-09-28T11:01:38.860Z,1019.64
2018-09-28T11:02:38.854Z,1019.59
2018-09-28T11:03:38.863Z,1019.61
2018-09-28T11:04:38.923Z,1019.60
2018-09-28T11:05:38.860Z,1019.62
2018-09-28T11:06:38.854Z,1019.58
2018-09-28T11:07:38.853Z,1019.57
2018-09-28T11:08:38.909Z,1019.60
2018-09-28T11:09:38.864Z,1019.61
2018-09-28T11:10:38.906Z,1019.65
2018-09-28T11:11:38.852Z,1019.66
2018-09-28T11:12:38.856Z,1019.65
2018-09-28T11:13:38.857Z,1019.65
2018-09-28T11:14:38.858Z,1019.65
2018-09-28T11:15:38.871Z,1019.59
2018-09-28T11:16:38.856Z,1019.62
2018-09-28T11:17:38.856Z,1019.60
2018-09-28T11:18:38.853Z,1019.59
2018-09-28T11:19:38.855Z,1019.59
2018-09-28T11:20:38.862Z,1019.56
2018-09-28T11:21:38.889Z,1019.52
2018-09-28T11:22:38.856Z,1019.52
2018-09-28T11:23:40.748Z,1019.53
2018-09-28T11:24:40.447Z,1019.55
2018-09-28T11:25:40.642Z,1019.51
2018-09-28T11:26:40.075Z,1019.51
2018-09-28T11:27:38.899Z,1019.51
2018-09-28T11:28:39.020Z,1019.53
2018-09-28T11:29:39.009Z,1019.55
2018-09-28T11:30:38.925Z,1019.54
2018-09-28T11:31:38.868Z,1019.54
2018-09-28T11:32:38.895Z,1019.55
2018-09-28T11:33:39.079Z,1019.53
2018-09-28T11:34:38.943Z,1019.48
2018-09-28T11:35:39.092Z,1019.47
2018-09-28T11:36:38.870Z,1019.49
2018-09-28T11:37:38.869Z,1019.50
2018-09-28T11:38:38.870Z,1019.49
2018-09-28T11:39:40.827Z,1019.46
2018-09-28T11:40:38.867Z,1019.44
2018-09-28T11:41:39.467Z,1019.46
2018-09-28T11:42:40.204Z,1019.50
2018-09-28T11:43:39.002Z,1019.47
2018-09-28T11:44:38.879Z,1019.51
2018-09-28T11:45:38.918Z,1019.52
2018-09-28T11:46:39.682Z,1019.51
2018-09-28T11:47:39.610Z,1019.50
2018-09-28T11:48:40.257Z,1019.50
2018-09-28T11:49:38.870Z,1019.49
2018-09-28T11:50:38.871Z,1019.51
2018-09-28T11:51:38.887Z,1019.51
2018-09-28T11:52:38.869Z,1019.58
2018-09-28T11:53:38.869Z,1019.53
2018-09-28T11:54:38.868Z,1019.53
2018-09-28T11:55:39.381Z,1019.52
2018-09-28T11:56:38.989Z,1019.53
2018-09-28T11:57:38.883Z,1019.53
2018-09-28T11:58:38.958Z,1019.52
2018-09-28T11:59:38.870Z,1019.53
2018-09-28T12:00:38.871Z,1019.57
2018-09-28T12:01:38.856Z,1019.51
2018-09-28T12:02:38.864Z,1019.48
2018-09-28T12:03:38.931Z,1019.48
2018-09-28T12:04:38.861Z,1019.50
2018-09-28T12:05:38.868Z,1019.47
2018-09-28T12:06:39.128Z,1019.51